sensor_id;sensor_type;location;lat;lon;timestamp;temperature;humidity
7445;DHT22;3764;48.126;11.594;2023-12-29T00:00:07;9.30;99.90
7445;DHT22;3764;48.126;11.594;2023-12-29T00:02:37;9.30;99.90
7445;DHT22;3764;48.126;11.594;2023-12-29T00:05:05;9.30;99.90
7445;DHT22;3764;48.126;11.594;2023-12-29T00:07:32;9.30;99.90
7445;DHT22;3764;48.126;11.594;2023-12-29T00:09:59;9.30;99.90
7445;DHT22;3764;48.126;11.594;2023-12-29T00:12:27;9.30;99.90
7445;DHT22;3764;48.126;11.594;2023-12-29T00:14:54;9.30;99.90
7445;DHT22;3764;48.126;11.594;2023-12-29T00:17:21;9.30;99.90
7445;DHT22;3764;48.126;11.594;2023-12-29T00:19:50;9.30;99.90
7445;DHT22;3764;48.126;11.594;2023-12-29T00:22:19;9.30;99.90
7445;DHT22;3764;48.126;11.594;2023-12-29T00:24:47;9.30;99.90
7445;DHT22;3764;48.126;11.594;2023-12-29T00:27:14;9.20;99.90
7445;DHT22;3764;48.126;11.594;2023-12-29T00:29:42;9.20;99.90
7445;DHT22;3764;48.126;11.594;2023-12-29T00:32:10;9.20;99.90
7445;DHT22;3764;48.126;11.594;2023-12-29T00:34:37;9.20;99.90
7445;DHT22;3764;48.126;11.594;2023-12-29T00:37:06;9.10;99.90
7445;DHT22;3764;48.126;11.594;2023-12-29T00:39:34;9.10;99.90
7445;DHT22;3764;48.126;11.594;2023-12-29T00:42:04;9.10;99.90
7445;DHT22;3764;48.126;11.594;2023-12-29T00:44:32;9.00;99.90
7445;DHT22;3764;48.126;11.594;2023-12-29T00:47:00;8.90;99.90
7445;DHT22;3764;48.126;11.594;2023-12-29T00:49:27;8.90;99.90
7445;DHT22;3764;48.126;11.594;2023-12-29T00:51:54;8.80;99.90
7445;DHT22;3764;48.126;11.594;2023-12-29T00:54:23;8.80;99.90
7445;DHT22;3764;48.126;11.594;2023-12-29T00:56:50;8.70;99.90
7445;DHT22;3764;48.126;11.594;2023-12-29T00:59:19;8.60;99.90
7445;DHT22;3764;48.126;11.594;2023-12-29T01:01:46;8.60;99.90
7445;DHT22;3764;48.126;11.594;2023-12-29T01:04:14;8.50;99.90
7445;DHT22;3764;48.126;11.594;2023-12-29T01:06:41;8.50;99.90
7445;DHT22;3764;48.126;11.594;2023-12-29T01:09:09;8.50;99.90
7445;DHT22;3764;48.126;11.594;2023-12-29T01:11:38;8.50;99.90
7445;DHT22;3764;48.126;11.594;2023-12-29T01:14:05;8.40;99.90
7445;DHT22;3764;48.126;11.594;2023-12-29T01:16:33;8.40;99.90
7445;DHT22;3764;48.126;11.594;2023-12-29T01:19:00;8.40;99.90
7445;DHT22;3764;48.126;11.594;2023-12-29T01:21:27;8.40;99.90
7445;DHT22;3764;48.126;11.594;2023-12-29T01:23:59;8.30;99.90
7445;DHT22;3764;48.126;11.594;2023-12-29T01:26:26;8.30;99.90
7445;DHT22;3764;48.126;11.594;2023-12-29T01:28:55;8.30;99.90
7445;DHT22;3764;48.126;11.594;2023-12-29T01:31:22;8.30;99.90
7445;DHT22;3764;48.126;11.594;2023-12-29T01:33:50;8.30;99.90
7445;DHT22;3764;48.126;11.594;2023-12-29T01:36:18;8.20;99.90
7445;DHT22;3764;48.126;11.594;2023-12-29T01:38:45;8.20;99.90
7445;DHT22;3764;48.126;11.594;2023-12-29T01:41:13;8.20;99.90
7445;DHT22;3764;48.126;11.594;2023-12-29T01:44:14;8.10;99.90
7445;DHT22;3764;48.126;11.594;2023-12-29T01:46:44;8.10;99.90
7445;DHT22;3764;48.126;11.594;2023-12-29T01:49:13;8.00;99.90
7445;DHT22;3764;48.126;11.594;2023-12-29T01:51:41;8.00;99.90
7445;DHT22;3764;48.126;11.594;2023-12-29T01:54:10;8.00;99.90
7445;DHT22;3764;48.126;11.594;2023-12-29T01:56:38;7.90;99.90
7445;DHT22;3764;48.126;11.594;2023-12-29T01:59:08;7.90;99.90
7445;DHT22;3764;48.126;11.594;2023-12-29T02:01:36;7.80;99.90
7445;DHT22;3764;48.126;11.594;2023-12-29T02:04:05;7.80;99.90
7445;DHT22;3764;48.126;11.594;2023-12-29T02:06:33;7.80;99.90
7445;DHT22;3764;48.126;11.594;2023-12-29T02:09:02;7.80;99.90
7445;DHT22;3764;48.126;11.594;2023-12-29T02:11:30;7.80;99.90
7445;DHT22;3764;48.126;11.594;2023-12-29T02:13:58;7.80;99.90
7445;DHT22;3764;48.126;11.594;2023-12-29T02:16:35;7.80;99.90
7445;DHT22;3764;48.126;11.594;2023-12-29T02:19:17;7.80;99.90
7445;DHT22;3764;48.126;11.594;2023-12-29T02:21:48;7.80;99.90
7445;DHT22;3764;48.126;11.594;2023-12-29T02:24:15;7.80;99.90
7445;DHT22;3764;48.126;11.594;2023-12-29T02:26:49;7.80;99.90
7445;DHT22;3764;48.126;11.594;2023-12-29T02:29:19;7.80;99.90
7445;DHT22;3764;48.126;11.594;2023-12-29T02:31:51;7.80;99.90
7445;DHT22;3764;48.126;11.594;2023-12-29T02:34:20;7.80;99.90
7445;DHT22;3764;48.126;11.594;2023-12-29T02:36:50;7.80;99.90
7445;DHT22;3764;48.126;11.594;2023-12-29T02:39:18;7.80;99.90
7445;DHT22;3764;48.126;11.594;2023-12-29T02:41:47;7.80;99.90
7445;DHT22;3764;48.126;11.594;2023-12-29T02:44:14;7.80;99.90
7445;DHT22;3764;48.126;11.594;2023-12-29T02:46:41;7.80;99.90
7445;DHT22;3764;48.126;11.594;2023-12-29T02:49:09;7.80;99.90
7445;DHT22;3764;48.126;11.594;2023-12-29T02:51:38;7.80;99.90
7445;DHT22;3764;48.126;11.594;2023-12-29T02:54:06;7.70;99.90
7445;DHT22;3764;48.126;11.594;2023-12-29T02:56:34;7.70;99.90
7445;DHT22;3764;48.126;11.594;2023-12-29T02:59:03;7.70;99.90
7445;DHT22;3764;48.126;11.594;2023-12-29T03:01:30;7.60;99.90
7445;DHT22;3764;48.126;11.594;2023-12-29T03:03:57;7.60;99.90
7445;DHT22;3764;48.126;11.594;2023-12-29T03:06:25;7.60;99.90
7445;DHT22;3764;48.126;11.594;2023-12-29T03:08:52;7.60;99.90
7445;DHT22;3764;48.126;11.594;2023-12-29T03:11:19;7.60;99.90
7445;DHT22;3764;48.126;11.594;2023-12-29T03:13:47;7.60;99.90
7445;DHT22;3764;48.126;11.594;2023-12-29T03:16:15;7.70;99.90
7445;DHT22;3764;48.126;11.594;2023-12-29T03:18:42;7.70;99.90
7445;DHT22;3764;48.126;11.594;2023-12-29T03:21:10;7.70;99.90
7445;DHT22;3764;48.126;11.594;2023-12-29T03:23:37;7.70;99.90
7445;DHT22;3764;48.126;11.594;2023-12-29T03:26:04;7.70;99.90
7445;DHT22;3764;48.126;11.594;2023-12-29T03:28:32;7.80;99.90
7445;DHT22;3764;48.126;11.594;2023-12-29T03:30:59;7.80;99.90
7445;DHT22;3764;48.126;11.594;2023-12-29T03:33:28;7.80;99.90
7445;DHT22;3764;48.126;11.594;2023-12-29T03:35:55;7.80;99.90
7445;DHT22;3764;48.126;11.594;2023-12-29T03:38:22;7.90;99.90
7445;DHT22;3764;48.126;11.594;2023-12-29T03:40:49;8.00;99.90
7445;DHT22;3764;48.126;11.594;2023-12-29T03:43:17;8.00;99.90
7445;DHT22;3764;48.126;11.594;2023-12-29T03:45:44;8.00;99.90
7445;DHT22;3764;48.126;11.594;2023-12-29T03:48:11;8.10;99.90
7445;DHT22;3764;48.126;11.594;2023-12-29T03:50:40;8.00;99.90
7445;DHT22;3764;48.126;11.594;2023-12-29T03:53:07;8.00;99.90
7445;DHT22;3764;48.126;11.594;2023-12-29T03:55:34;8.00;99.90
7445;DHT22;3764;48.126;11.594;2023-12-29T03:58:03;8.00;99.90
7445;DHT22;3764;48.126;11.594;2023-12-29T04:00:30;8.00;99.90
7445;DHT22;3764;48.126;11.594;2023-12-29T04:02:58;8.00;99.90
7445;DHT22;3764;48.126;11.594;2023-12-29T04:05:25;8.00;99.90
7445;DHT22;3764;48.126;11.594;2023-12-29T04:07:53;8.00;99.90
7445;DHT22;3764;48.126;11.594;2023-12-29T04:10:21;8.10;99.90
7445;DHT22;3764;48.126;11.594;2023-12-29T04:12:48;8.10;99.90
7445;DHT22;3764;48.126;11.594;2023-12-29T04:15:15;8.20;99.90
7445;DHT22;3764;48.126;11.594;2023-12-29T04:17:43;8.20;99.90
7445;DHT22;3764;48.126;11.594;2023-12-29T04:20:10;8.30;99.90
7445;DHT22;3764;48.126;11.594;2023-12-29T04:22:37;8.30;99.90
7445;DHT22;3764;48.126;11.594;2023-12-29T04:25:07;8.40;99.90
7445;DHT22;3764;48.126;11.594;2023-12-29T04:27:34;8.50;99.90
7445;DHT22;3764;48.126;11.594;2023-12-29T04:30:02;8.50;99.90
7445;DHT22;3764;48.126;11.594;2023-12-29T04:32:30;8.50;99.90
7445;DHT22;3764;48.126;11.594;2023-12-29T04:34:57;8.60;99.90
7445;DHT22;3764;48.126;11.594;2023-12-29T04:37:24;8.60;99.90
7445;DHT22;3764;48.126;11.594;2023-12-29T04:39:51;8.70;99.90
7445;DHT22;3764;48.126;11.594;2023-12-29T04:42:20;8.70;99.90
7445;DHT22;3764;48.126;11.594;2023-12-29T04:44:48;8.70;99.90
7445;DHT22;3764;48.126;11.594;2023-12-29T04:47:15;8.70;99.90
7445;DHT22;3764;48.126;11.594;2023-12-29T04:49:42;8.80;99.90
7445;DHT22;3764;48.126;11.594;2023-12-29T04:52:09;8.80;99.90
7445;DHT22;3764;48.126;11.594;2023-12-29T04:54:37;8.80;99.90
7445;DHT22;3764;48.126;11.594;2023-12-29T04:57:05;8.90;99.90
7445;DHT22;3764;48.126;11.594;2023-12-29T04:59:33;8.90;99.90
7445;DHT22;3764;48.126;11.594;2023-12-29T05:02:00;9.00;99.90
7445;DHT22;3764;48.126;11.594;2023-12-29T05:04:28;9.00;99.90
7445;DHT22;3764;48.126;11.594;2023-12-29T05:06:55;9.10;99.90
7445;DHT22;3764;48.126;11.594;2023-12-29T05:09:22;9.10;99.90
7445;DHT22;3764;48.126;11.594;2023-12-29T05:11:50;9.10;99.90
7445;DHT22;3764;48.126;11.594;2023-12-29T05:14:17;9.10;99.90
7445;DHT22;3764;48.126;11.594;2023-12-29T05:16:46;9.10;99.90
7445;DHT22;3764;48.126;11.594;2023-12-29T05:19:13;9.10;99.90
7445;DHT22;3764;48.126;11.594;2023-12-29T05:21:40;9.20;99.90
7445;DHT22;3764;48.126;11.594;2023-12-29T05:24:08;9.30;99.90
7445;DHT22;3764;48.126;11.594;2023-12-29T05:26:36;9.40;99.90
7445;DHT22;3764;48.126;11.594;2023-12-29T05:29:03;9.40;99.90
7445;DHT22;3764;48.126;11.594;2023-12-29T05:31:30;9.50;99.90
7445;DHT22;3764;48.126;11.594;2023-12-29T05:33:59;9.50;99.90
7445;DHT22;3764;48.126;11.594;2023-12-29T05:36:26;9.50;99.90
7445;DHT22;3764;48.126;11.594;2023-12-29T05:38:53;9.40;99.90
7445;DHT22;3764;48.126;11.594;2023-12-29T05:41:21;9.50;99.90
7445;DHT22;3764;48.126;11.594;2023-12-29T05:43:48;9.50;99.90
7445;DHT22;3764;48.126;11.594;2023-12-29T05:46:15;9.50;99.90
7445;DHT22;3764;48.126;11.594;2023-12-29T05:48:43;9.50;99.90
7445;DHT22;3764;48.126;11.594;2023-12-29T05:51:13;9.50;99.90
7445;DHT22;3764;48.126;11.594;2023-12-29T05:53:41;9.40;99.90
7445;DHT22;3764;48.126;11.594;2023-12-29T05:56:09;9.40;99.90
7445;DHT22;3764;48.126;11.594;2023-12-29T05:58:36;9.40;99.90
7445;DHT22;3764;48.126;11.594;2023-12-29T06:01:03;9.50;99.90
7445;DHT22;3764;48.126;11.594;2023-12-29T06:03:31;9.50;99.90
7445;DHT22;3764;48.126;11.594;2023-12-29T06:05:58;9.50;99.90
7445;DHT22;3764;48.126;11.594;2023-12-29T06:08:27;9.50;99.90
7445;DHT22;3764;48.126;11.594;2023-12-29T06:10:54;9.40;99.90
7445;DHT22;3764;48.126;11.594;2023-12-29T06:13:22;9.40;99.90
7445;DHT22;3764;48.126;11.594;2023-12-29T06:15:50;9.40;99.90
7445;DHT22;3764;48.126;11.594;2023-12-29T06:18:17;9.40;99.90
7445;DHT22;3764;48.126;11.594;2023-12-29T06:20:44;9.40;99.90
7445;DHT22;3764;48.126;11.594;2023-12-29T06:23:12;9.40;99.90
7445;DHT22;3764;48.126;11.594;2023-12-29T06:25:40;9.30;99.90
7445;DHT22;3764;48.126;11.594;2023-12-29T06:28:08;9.40;99.90
7445;DHT22;3764;48.126;11.594;2023-12-29T06:30:35;9.30;99.90
7445;DHT22;3764;48.126;11.594;2023-12-29T06:33:03;9.30;99.90
7445;DHT22;3764;48.126;11.594;2023-12-29T06:35:30;9.30;99.90
7445;DHT22;3764;48.126;11.594;2023-12-29T06:37:58;9.30;99.90
7445;DHT22;3764;48.126;11.594;2023-12-29T06:40:25;9.30;99.90
7445;DHT22;3764;48.126;11.594;2023-12-29T06:42:54;9.30;99.90
7445;DHT22;3764;48.126;11.594;2023-12-29T06:45:21;9.20;99.90
7445;DHT22;3764;48.126;11.594;2023-12-29T06:47:48;9.20;99.90
7445;DHT22;3764;48.126;11.594;2023-12-29T06:50:16;9.20;99.90
7445;DHT22;3764;48.126;11.594;2023-12-29T06:52:43;9.20;99.90
7445;DHT22;3764;48.126;11.594;2023-12-29T06:55:10;9.20;99.90
7445;DHT22;3764;48.126;11.594;2023-12-29T06:57:38;9.20;99.90
7445;DHT22;3764;48.126;11.594;2023-12-29T07:00:07;9.20;99.90
7445;DHT22;3764;48.126;11.594;2023-12-29T07:02:38;9.20;99.90
7445;DHT22;3764;48.126;11.594;2023-12-29T07:05:06;9.10;99.90
7445;DHT22;3764;48.126;11.594;2023-12-29T07:07:34;9.20;99.90
7445;DHT22;3764;48.126;11.594;2023-12-29T07:10:02;9.20;99.90
7445;DHT22;3764;48.126;11.594;2023-12-29T07:12:29;9.30;99.90
7445;DHT22;3764;48.126;11.594;2023-12-29T07:14:56;9.40;99.90
7445;DHT22;3764;48.126;11.594;2023-12-29T07:17:25;9.50;99.90
7445;DHT22;3764;48.126;11.594;2023-12-29T07:19:53;9.50;99.90
7445;DHT22;3764;48.126;11.594;2023-12-29T07:22:20;9.60;99.90
7445;DHT22;3764;48.126;11.594;2023-12-29T07:24:47;9.60;99.90
7445;DHT22;3764;48.126;11.594;2023-12-29T07:27:15;9.60;99.90
7445;DHT22;3764;48.126;11.594;2023-12-29T07:29:43;9.60;99.90
7445;DHT22;3764;48.126;11.594;2023-12-29T07:32:10;9.60;99.90
7445;DHT22;3764;48.126;11.594;2023-12-29T07:34:39;9.60;99.90
7445;DHT22;3764;48.126;11.594;2023-12-29T07:37:06;9.50;99.90
7445;DHT22;3764;48.126;11.594;2023-12-29T07:39:36;9.50;99.90
7445;DHT22;3764;48.126;11.594;2023-12-29T07:42:04;9.50;99.90
7445;DHT22;3764;48.126;11.594;2023-12-29T07:44:31;9.50;99.90
7445;DHT22;3764;48.126;11.594;2023-12-29T07:46:58;9.50;99.90
7445;DHT22;3764;48.126;11.594;2023-12-29T07:49:26;9.50;99.90
7445;DHT22;3764;48.126;11.594;2023-12-29T07:51:54;9.50;99.90
7445;DHT22;3764;48.126;11.594;2023-12-29T07:54:25;9.50;99.90
7445;DHT22;3764;48.126;11.594;2023-12-29T07:56:52;9.50;99.90
7445;DHT22;3764;48.126;11.594;2023-12-29T07:59:19;9.50;99.90
7445;DHT22;3764;48.126;11.594;2023-12-29T08:01:47;9.50;99.90
7445;DHT22;3764;48.126;11.594;2023-12-29T08:04:14;9.40;99.90
7445;DHT22;3764;48.126;11.594;2023-12-29T08:06:41;9.50;99.90
7445;DHT22;3764;48.126;11.594;2023-12-29T08:09:10;9.50;99.90
7445;DHT22;3764;48.126;11.594;2023-12-29T08:11:37;9.50;99.90
7445;DHT22;3764;48.126;11.594;2023-12-29T08:14:04;9.50;99.90
7445;DHT22;3764;48.126;11.594;2023-12-29T08:16:38;9.50;99.90
7445;DHT22;3764;48.126;11.594;2023-12-29T08:19:05;9.50;99.90
7445;DHT22;3764;48.126;11.594;2023-12-29T08:21:33;9.50;99.90
7445;DHT22;3764;48.126;11.594;2023-12-29T08:24:01;9.50;99.90
7445;DHT22;3764;48.126;11.594;2023-12-29T08:26:30;9.60;99.90
7445;DHT22;3764;48.126;11.594;2023-12-29T08:28:57;9.60;99.90
7445;DHT22;3764;48.126;11.594;2023-12-29T08:31:24;9.60;99.90
7445;DHT22;3764;48.126;11.594;2023-12-29T08:33:53;9.50;99.90
7445;DHT22;3764;48.126;11.594;2023-12-29T08:36:21;9.50;99.90
7445;DHT22;3764;48.126;11.594;2023-12-29T08:38:48;9.60;99.90
7445;DHT22;3764;48.126;11.594;2023-12-29T08:41:15;9.60;99.90
7445;DHT22;3764;48.126;11.594;2023-12-29T08:43:45;9.60;99.90
7445;DHT22;3764;48.126;11.594;2023-12-29T08:46:12;9.60;99.90
7445;DHT22;3764;48.126;11.594;2023-12-29T08:48:40;9.70;99.90
7445;DHT22;3764;48.126;11.594;2023-12-29T08:51:07;9.70;99.90
7445;DHT22;3764;48.126;11.594;2023-12-29T08:53:34;9.70;99.90
7445;DHT22;3764;48.126;11.594;2023-12-29T08:56:02;9.70;99.90
7445;DHT22;3764;48.126;11.594;2023-12-29T08:58:29;9.70;99.90
7445;DHT22;3764;48.126;11.594;2023-12-29T09:00:58;9.70;99.90
7445;DHT22;3764;48.126;11.594;2023-12-29T09:03:26;9.70;99.90
7445;DHT22;3764;48.126;11.594;2023-12-29T09:05:53;9.70;99.90
7445;DHT22;3764;48.126;11.594;2023-12-29T09:08:22;9.70;99.90
7445;DHT22;3764;48.126;11.594;2023-12-29T09:10:50;9.60;99.90
7445;DHT22;3764;48.126;11.594;2023-12-29T09:13:17;9.60;99.90
7445;DHT22;3764;48.126;11.594;2023-12-29T09:15:48;9.60;99.90
7445;DHT22;3764;48.126;11.594;2023-12-29T09:18:17;9.70;99.90
7445;DHT22;3764;48.126;11.594;2023-12-29T09:20:44;9.70;99.90
7445;DHT22;3764;48.126;11.594;2023-12-29T09:23:11;9.70;99.90
7445;DHT22;3764;48.126;11.594;2023-12-29T09:25:39;9.70;99.90
7445;DHT22;3764;48.126;11.594;2023-12-29T09:28:06;9.70;99.90
7445;DHT22;3764;48.126;11.594;2023-12-29T09:30:34;9.70;99.90
7445;DHT22;3764;48.126;11.594;2023-12-29T09:33:01;9.70;99.90
7445;DHT22;3764;48.126;11.594;2023-12-29T09:35:30;9.70;99.90
7445;DHT22;3764;48.126;11.594;2023-12-29T09:37:58;9.80;99.90
7445;DHT22;3764;48.126;11.594;2023-12-29T09:40:26;9.80;99.90
7445;DHT22;3764;48.126;11.594;2023-12-29T09:42:53;9.80;99.90
7445;DHT22;3764;48.126;11.594;2023-12-29T09:45:24;9.80;99.90
7445;DHT22;3764;48.126;11.594;2023-12-29T09:47:52;9.80;99.90
7445;DHT22;3764;48.126;11.594;2023-12-29T09:50:21;9.80;99.90
7445;DHT22;3764;48.126;11.594;2023-12-29T09:52:50;9.80;99.90
7445;DHT22;3764;48.126;11.594;2023-12-29T09:55:20;9.80;99.90
7445;DHT22;3764;48.126;11.594;2023-12-29T09:57:47;9.80;99.90
7445;DHT22;3764;48.126;11.594;2023-12-29T10:00:16;9.80;99.90
7445;DHT22;3764;48.126;11.594;2023-12-29T10:02:44;9.80;99.90
7445;DHT22;3764;48.126;11.594;2023-12-29T10:05:11;9.80;99.90
7445;DHT22;3764;48.126;11.594;2023-12-29T10:07:39;9.80;99.90
7445;DHT22;3764;48.126;11.594;2023-12-29T10:10:14;9.80;99.90
7445;DHT22;3764;48.126;11.594;2023-12-29T10:12:42;9.80;99.90
7445;DHT22;3764;48.126;11.594;2023-12-29T10:15:12;9.80;99.90
7445;DHT22;3764;48.126;11.594;2023-12-29T10:17:45;9.80;99.90
7445;DHT22;3764;48.126;11.594;2023-12-29T10:20:25;9.80;99.90
7445;DHT22;3764;48.126;11.594;2023-12-29T10:23:06;9.90;99.90
7445;DHT22;3764;48.126;11.594;2023-12-29T10:25:36;9.90;99.90
7445;DHT22;3764;48.126;11.594;2023-12-29T10:28:05;9.90;99.90
7445;DHT22;3764;48.126;11.594;2023-12-29T10:30:32;9.90;99.90
7445;DHT22;3764;48.126;11.594;2023-12-29T10:33:00;10.00;99.90
7445;DHT22;3764;48.126;11.594;2023-12-29T10:35:29;10.10;99.90
7445;DHT22;3764;48.126;11.594;2023-12-29T10:38:08;10.10;99.90
7445;DHT22;3764;48.126;11.594;2023-12-29T10:40:37;10.10;99.90
7445;DHT22;3764;48.126;11.594;2023-12-29T10:43:05;10.20;99.90
7445;DHT22;3764;48.126;11.594;2023-12-29T10:45:33;10.20;99.90
7445;DHT22;3764;48.126;11.594;2023-12-29T10:48:02;10.20;99.90
7445;DHT22;3764;48.126;11.594;2023-12-29T10:50:30;10.20;99.90
7445;DHT22;3764;48.126;11.594;2023-12-29T10:53:13;10.20;99.90
7445;DHT22;3764;48.126;11.594;2023-12-29T10:55:42;10.30;99.90
7445;DHT22;3764;48.126;11.594;2023-12-29T10:58:09;10.30;99.90
7445;DHT22;3764;48.126;11.594;2023-12-29T11:00:36;10.40;99.90
7445;DHT22;3764;48.126;11.594;2023-12-29T11:03:04;10.40;99.90
7445;DHT22;3764;48.126;11.594;2023-12-29T11:05:32;10.50;99.90
7445;DHT22;3764;48.126;11.594;2023-12-29T11:08:00;10.40;99.90
7445;DHT22;3764;48.126;11.594;2023-12-29T11:10:29;10.50;99.90
7445;DHT22;3764;48.126;11.594;2023-12-29T11:12:59;10.40;99.90
7445;DHT22;3764;48.126;11.594;2023-12-29T11:15:27;10.50;99.90
7445;DHT22;3764;48.126;11.594;2023-12-29T11:17:56;10.50;99.90
7445;DHT22;3764;48.126;11.594;2023-12-29T11:20:25;10.50;99.90
7445;DHT22;3764;48.126;11.594;2023-12-29T11:22:52;10.50;99.90
7445;DHT22;3764;48.126;11.594;2023-12-29T11:25:20;10.50;99.90
7445;DHT22;3764;48.126;11.594;2023-12-29T11:27:49;10.60;99.90
7445;DHT22;3764;48.126;11.594;2023-12-29T11:30:18;10.60;99.90
7445;DHT22;3764;48.126;11.594;2023-12-29T11:32:51;10.60;99.90
7445;DHT22;3764;48.126;11.594;2023-12-29T11:35:23;10.70;99.90
7445;DHT22;3764;48.126;11.594;2023-12-29T11:40:50;10.70;99.90
7445;DHT22;3764;48.126;11.594;2023-12-29T11:43:20;10.80;99.90
7445;DHT22;3764;48.126;11.594;2023-12-29T11:45:50;10.80;99.90
7445;DHT22;3764;48.126;11.594;2023-12-29T11:48:55;10.80;99.90
7445;DHT22;3764;48.126;11.594;2023-12-29T11:51:29;10.80;99.90
7445;DHT22;3764;48.126;11.594;2023-12-29T11:53:57;10.80;99.90
7445;DHT22;3764;48.126;11.594;2023-12-29T11:56:29;10.80;99.90
7445;DHT22;3764;48.126;11.594;2023-12-29T11:59:08;10.80;99.90
7445;DHT22;3764;48.126;11.594;2023-12-29T12:01:40;10.80;99.90
7445;DHT22;3764;48.126;11.594;2023-12-29T12:04:35;10.80;99.90
7445;DHT22;3764;48.126;11.594;2023-12-29T12:07:04;10.80;99.90
7445;DHT22;3764;48.126;11.594;2023-12-29T12:09:33;10.80;99.90
7445;DHT22;3764;48.126;11.594;2023-12-29T12:12:01;10.80;99.90
7445;DHT22;3764;48.126;11.594;2023-12-29T12:14:49;10.80;99.90
7445;DHT22;3764;48.126;11.594;2023-12-29T12:17:33;10.90;99.90
7445;DHT22;3764;48.126;11.594;2023-12-29T12:20:04;10.90;99.90
7445;DHT22;3764;48.126;11.594;2023-12-29T12:22:36;10.90;99.90
7445;DHT22;3764;48.126;11.594;2023-12-29T12:25:04;10.90;99.90
7445;DHT22;3764;48.126;11.594;2023-12-29T12:27:32;10.90;99.90
7445;DHT22;3764;48.126;11.594;2023-12-29T12:30:00;11.00;99.90
7445;DHT22;3764;48.126;11.594;2023-12-29T12:32:28;10.90;99.90
7445;DHT22;3764;48.126;11.594;2023-12-29T12:34:57;10.90;99.90
7445;DHT22;3764;48.126;11.594;2023-12-29T12:37:26;11.00;99.90
7445;DHT22;3764;48.126;11.594;2023-12-29T12:39:53;11.00;99.90
7445;DHT22;3764;48.126;11.594;2023-12-29T12:42:22;11.00;99.90
7445;DHT22;3764;48.126;11.594;2023-12-29T12:44:55;11.00;99.90
7445;DHT22;3764;48.126;11.594;2023-12-29T12:47:31;10.90;99.90
7445;DHT22;3764;48.126;11.594;2023-12-29T12:50:01;11.00;99.90
7445;DHT22;3764;48.126;11.594;2023-12-29T12:52:32;11.00;99.90
7445;DHT22;3764;48.126;11.594;2023-12-29T12:55:01;11.00;99.90
7445;DHT22;3764;48.126;11.594;2023-12-29T12:57:28;11.00;99.90
7445;DHT22;3764;48.126;11.594;2023-12-29T12:59:56;11.00;99.90
7445;DHT22;3764;48.126;11.594;2023-12-29T13:02:25;11.10;99.90
7445;DHT22;3764;48.126;11.594;2023-12-29T13:04:54;11.00;99.90
7445;DHT22;3764;48.126;11.594;2023-12-29T13:07:23;11.00;99.90
7445;DHT22;3764;48.126;11.594;2023-12-29T13:09:50;11.10;99.90
7445;DHT22;3764;48.126;11.594;2023-12-29T13:12:18;11.00;99.90
7445;DHT22;3764;48.126;11.594;2023-12-29T13:14:46;11.00;99.90
7445;DHT22;3764;48.126;11.594;2023-12-29T13:17:14;11.00;99.90
7445;DHT22;3764;48.126;11.594;2023-12-29T13:19:42;11.00;99.90
7445;DHT22;3764;48.126;11.594;2023-12-29T13:22:11;11.10;99.90
7445;DHT22;3764;48.126;11.594;2023-12-29T13:24:45;11.10;99.90
7445;DHT22;3764;48.126;11.594;2023-12-29T13:27:13;11.10;99.90
7445;DHT22;3764;48.126;11.594;2023-12-29T13:29:41;11.10;99.90
7445;DHT22;3764;48.126;11.594;2023-12-29T13:32:12;11.10;99.90
7445;DHT22;3764;48.126;11.594;2023-12-29T13:34:49;11.00;99.90
7445;DHT22;3764;48.126;11.594;2023-12-29T13:37:23;11.10;99.90
7445;DHT22;3764;48.126;11.594;2023-12-29T13:39:56;11.10;99.90
7445;DHT22;3764;48.126;11.594;2023-12-29T13:42:29;11.10;99.90
7445;DHT22;3764;48.126;11.594;2023-12-29T13:44:58;11.10;99.90
7445;DHT22;3764;48.126;11.594;2023-12-29T13:47:27;11.10;99.90
7445;DHT22;3764;48.126;11.594;2023-12-29T13:49:54;11.10;99.90
7445;DHT22;3764;48.126;11.594;2023-12-29T13:52:22;11.10;99.90
7445;DHT22;3764;48.126;11.594;2023-12-29T13:54:49;11.00;99.90
7445;DHT22;3764;48.126;11.594;2023-12-29T13:57:18;11.00;99.90
7445;DHT22;3764;48.126;11.594;2023-12-29T13:59:45;11.00;99.90
7445;DHT22;3764;48.126;11.594;2023-12-29T14:02:24;10.90;99.90
7445;DHT22;3764;48.126;11.594;2023-12-29T14:05:23;11.00;99.90
7445;DHT22;3764;48.126;11.594;2023-12-29T14:07:55;10.90;99.90
7445;DHT22;3764;48.126;11.594;2023-12-29T14:10:29;10.90;99.90
7445;DHT22;3764;48.126;11.594;2023-12-29T14:13:06;10.90;99.90
7445;DHT22;3764;48.126;11.594;2023-12-29T14:15:37;10.90;99.90
7445;DHT22;3764;48.126;11.594;2023-12-29T14:18:14;10.80;99.90
7445;DHT22;3764;48.126;11.594;2023-12-29T14:20:45;10.90;99.90
7445;DHT22;3764;48.126;11.594;2023-12-29T14:23:13;10.90;99.90
7445;DHT22;3764;48.126;11.594;2023-12-29T14:25:41;10.90;99.90
7445;DHT22;3764;48.126;11.594;2023-12-29T14:28:16;10.90;99.90
7445;DHT22;3764;48.126;11.594;2023-12-29T14:30:44;10.90;99.90
7445;DHT22;3764;48.126;11.594;2023-12-29T14:33:12;10.80;99.90
7445;DHT22;3764;48.126;11.594;2023-12-29T14:35:39;10.80;99.90
7445;DHT22;3764;48.126;11.594;2023-12-29T14:38:07;10.80;99.90
7445;DHT22;3764;48.126;11.594;2023-12-29T14:40:34;10.80;99.90
7445;DHT22;3764;48.126;11.594;2023-12-29T14:43:02;10.70;99.90
7445;DHT22;3764;48.126;11.594;2023-12-29T14:45:30;10.80;99.90
7445;DHT22;3764;48.126;11.594;2023-12-29T14:47:58;10.80;99.90
7445;DHT22;3764;48.126;11.594;2023-12-29T14:50:26;10.80;99.90
7445;DHT22;3764;48.126;11.594;2023-12-29T14:52:53;10.80;99.90
7445;DHT22;3764;48.126;11.594;2023-12-29T14:55:21;10.80;99.90
7445;DHT22;3764;48.126;11.594;2023-12-29T14:57:50;10.80;99.90
7445;DHT22;3764;48.126;11.594;2023-12-29T15:00:18;10.80;99.90
7445;DHT22;3764;48.126;11.594;2023-12-29T15:02:47;10.80;99.90
7445;DHT22;3764;48.126;11.594;2023-12-29T15:05:14;10.70;99.90
7445;DHT22;3764;48.126;11.594;2023-12-29T15:07:43;10.70;99.90
7445;DHT22;3764;48.126;11.594;2023-12-29T15:10:11;10.70;99.90
7445;DHT22;3764;48.126;11.594;2023-12-29T15:12:38;10.70;99.90
7445;DHT22;3764;48.126;11.594;2023-12-29T15:15:07;10.70;99.90
7445;DHT22;3764;48.126;11.594;2023-12-29T15:17:36;10.70;99.90
7445;DHT22;3764;48.126;11.594;2023-12-29T15:20:06;10.60;99.90
7445;DHT22;3764;48.126;11.594;2023-12-29T15:22:34;10.60;99.90
7445;DHT22;3764;48.126;11.594;2023-12-29T15:25:02;10.60;99.90
7445;DHT22;3764;48.126;11.594;2023-12-29T15:27:29;10.60;99.90
7445;DHT22;3764;48.126;11.594;2023-12-29T15:29:57;10.60;99.90
7445;DHT22;3764;48.126;11.594;2023-12-29T15:32:24;10.60;99.90
7445;DHT22;3764;48.126;11.594;2023-12-29T15:34:51;10.60;99.90
7445;DHT22;3764;48.126;11.594;2023-12-29T15:37:20;10.50;99.90
7445;DHT22;3764;48.126;11.594;2023-12-29T15:39:47;10.50;99.90
7445;DHT22;3764;48.126;11.594;2023-12-29T15:42:15;10.60;99.90
7445;DHT22;3764;48.126;11.594;2023-12-29T15:44:43;10.60;99.90
7445;DHT22;3764;48.126;11.594;2023-12-29T15:47:11;10.60;99.90
7445;DHT22;3764;48.126;11.594;2023-12-29T15:49:38;10.60;99.90
7445;DHT22;3764;48.126;11.594;2023-12-29T15:52:06;10.60;99.90
7445;DHT22;3764;48.126;11.594;2023-12-29T15:54:35;10.60;99.90
7445;DHT22;3764;48.126;11.594;2023-12-29T15:57:02;10.60;99.90
7445;DHT22;3764;48.126;11.594;2023-12-29T15:59:34;10.50;99.90
7445;DHT22;3764;48.126;11.594;2023-12-29T16:02:01;10.50;99.90
7445;DHT22;3764;48.126;11.594;2023-12-29T16:04:28;10.40;99.90
7445;DHT22;3764;48.126;11.594;2023-12-29T16:06:56;10.40;99.90
7445;DHT22;3764;48.126;11.594;2023-12-29T16:09:23;10.40;99.90